Terminal Aerodrome Forecast
Issued by NWS

Home | Current Version | Previous Version | Text Only | Print | Product List | Glossary On
Versions: 1 2 3 4 5 6 7 8 9 10 11 12 13 14 15 16 17 18
000
FTUS42 KGSP 280531
TAFAND
TAF
KAND 280531Z 2806/2906 00000KT P6SM FEW050 BKN250
     FM280800 00000KT 5SM BR BKN250
      TEMPO 2811/2813 2SM BR BKN005
     FM281400 19003KT P6SM BKN250
     FM281700 16004KT P6SM BKN060 PROB30 2817/2823 4SM TSRA BKN040CB
     FM290200 00000KT P6SM SCT060 BKN250=

USA.gov is the U.S. government's official web portal to all federal, state and local government web resources and services.